createdAt,value
2018-09-12T00:00:35.048Z,101439.91
2018-09-12T00:03:03.392Z,101438.18
2018-09-12T00:05:31.724Z,101440.50
2018-09-12T00:08:00.103Z,101441.86
2018-09-12T00:10:28.466Z,101438.39
2018-09-12T00:12:56.812Z,101440.25
2018-09-12T00:15:25.178Z,101450.16
2018-09-12T00:17:53.533Z,101448.35
2018-09-12T00:20:21.891Z,101447.23
2018-09-12T00:22:50.256Z,101441.66
2018-09-12T00:25:18.604Z,101444.88
2018-09-12T00:27:46.968Z,101445.38
2018-09-12T00:30:15.453Z,101444.02
2018-09-12T00:32:43.784Z,101441.22
2018-09-12T00:35:12.163Z,101437.63
2018-09-12T00:37:40.523Z,101439.32
2018-09-12T00:40:08.894Z,101436.10
2018-09-12T00:42:37.261Z,101435.44
2018-09-12T00:45:05.621Z,101436.77
2018-09-12T00:47:33.961Z,101437.34
2018-09-12T00:50:02.397Z,101433.67
2018-09-12T00:52:30.726Z,101431.41
2018-09-12T00:54:59.097Z,101438.45
2018-09-12T00:57:30.898Z,101438.45
2018-09-12T00:59:59.319Z,101432.23
2018-09-12T01:02:27.669Z,101436.69
2018-09-12T01:04:56.021Z,101431.97
2018-09-12T01:07:24.365Z,101432.67
2018-09-12T01:09:52.703Z,101443.33
2018-09-12T01:12:21.016Z,101441.80
2018-09-12T01:21:49.443Z,101436.02
2018-09-12T01:24:17.770Z,101440.72
2018-09-12T01:26:46.095Z,101437.62
2018-09-12T01:29:14.460Z,101438.20
2018-09-12T01:31:48.514Z,101440.17
2018-09-12T01:34:16.867Z,101442.98
2018-09-12T01:36:45.215Z,101443.09
2018-09-12T01:39:13.566Z,101438.84
2018-09-12T01:41:41.919Z,101436.20
2018-09-12T01:44:10.287Z,101438.47
2018-09-12T01:46:38.635Z,101438.67
2018-09-12T01:49:06.973Z,101436.94
2018-09-12T01:51:35.353Z,101432.07
2018-09-12T01:54:03.704Z,101440.23
2018-09-12T01:56:32.049Z,101434.50
2018-09-12T01:59:00.393Z,101441.80
2018-09-12T02:01:28.756Z,101432.52
2018-09-12T02:03:59.992Z,101431.53
2018-09-12T02:06:28.362Z,101424.02
2018-09-12T02:08:56.702Z,101423.24
2018-09-12T02:11:25.032Z,101425.22
2018-09-12T02:13:53.382Z,101421.88
2018-09-12T02:16:21.726Z,101422.98
2018-09-12T02:18:50.068Z,101419.59
2018-09-12T02:21:19.125Z,101428.42
2018-09-12T02:23:47.560Z,101420.47
2018-09-12T02:26:16.075Z,101430.86
2018-09-12T02:28:44.421Z,101422.23
2018-09-12T02:31:12.801Z,101431.66
2018-09-12T02:33:41.144Z,101431.98
2018-09-12T02:36:14.787Z,101429.14
2018-09-12T02:38:43.161Z,101422.05
2018-09-12T02:41:11.534Z,101425.76
2018-09-12T02:43:39.876Z,101427.73
2018-09-12T02:46:08.234Z,101425.20
2018-09-12T02:48:36.606Z,101418.41
2018-09-12T02:51:04.985Z,101419.97
2018-09-12T02:53:33.366Z,101415.63
2018-09-12T02:56:01.708Z,101419.41
2018-09-12T02:58:30.101Z,101415.89
2018-09-12T03:00:58.447Z,101408.54
2018-09-12T03:03:26.810Z,101410.27
2018-09-12T03:05:55.158Z,101409.90
2018-09-12T03:08:23.505Z,101407.38
2018-09-12T03:10:51.868Z,101409.72
2018-09-12T03:13:20.241Z,101408.73
2018-09-12T03:15:48.612Z,101401.77
2018-09-12T03:18:16.996Z,101405.84
2018-09-12T03:20:45.556Z,101407.49
2018-09-12T03:23:13.745Z,101399.05
2018-09-12T03:25:42.102Z,101402.75
2018-09-12T03:28:10.464Z,101393.63
2018-09-12T03:30:38.817Z,101392.45
2018-09-12T03:33:07.197Z,101393.14
2018-09-12T03:35:35.608Z,101390.33
2018-09-12T03:38:03.971Z,101387.81
2018-09-12T03:40:32.390Z,101388.80
2018-09-12T03:43:00.746Z,101393.94
2018-09-12T03:45:29.124Z,101396.97
2018-09-12T03:47:57.478Z,101392.78
2018-09-12T03:50:25.853Z,101390.19
2018-09-12T03:52:54.264Z,101389.02
2018-09-12T03:55:22.697Z,101395.61
2018-09-12T03:57:51.089Z,101388.75
2018-09-12T04:00:19.468Z,101386.80
2018-09-12T04:02:47.924Z,101382.53
2018-09-12T04:05:16.219Z,101378.16
2018-09-12T04:07:44.703Z,101383.22
2018-09-12T04:10:13.077Z,101382.16
2018-09-12T04:12:41.473Z,101385.13
2018-09-12T04:15:09.845Z,101382.68
2018-09-12T04:17:38.262Z,101377.25
2018-09-12T04:20:06.640Z,101377.73
2018-09-12T04:22:34.996Z,101384.53
2018-09-12T04:25:03.335Z,101381.73
2018-09-12T04:27:31.699Z,101381.05
2018-09-12T04:30:00.029Z,101386.37
2018-09-12T04:32:28.792Z,101377.47
2018-09-12T04:34:57.151Z,101385.98
2018-09-12T04:37:25.524Z,101378.99
2018-09-12T04:39:53.881Z,101378.50
2018-09-12T04:42:22.226Z,101376.58
2018-09-12T04:44:50.581Z,101370.17
2018-09-12T04:47:18.960Z,101366.58
2018-09-12T04:49:47.917Z,101367.08
2018-09-12T04:52:16.287Z,101364.44
2018-09-12T04:54:44.648Z,101368.13
2018-09-12T04:57:12.980Z,101360.28
2018-09-12T04:59:41.387Z,101358.81
2018-09-12T05:02:09.738Z,101361.91
2018-09-12T05:04:38.092Z,101358.06
2018-09-12T05:07:06.786Z,101359.79
2018-09-12T05:09:35.110Z,101359.19
2018-09-12T05:12:03.733Z,101353.98
2018-09-12T05:14:32.107Z,101362.31
2018-09-12T05:17:00.457Z,101359.33
2018-09-12T05:19:28.833Z,101361.17
2018-09-12T05:21:57.221Z,101361.84
2018-09-12T05:24:26.132Z,101361.63
2018-09-12T05:26:54.791Z,101362.30
2018-09-12T05:29:23.961Z,101367.53
2018-09-12T05:31:53.647Z,101362.66
2018-09-12T05:34:24.676Z,101375.44
2018-09-12T05:36:53.889Z,101373.80
2018-09-12T05:39:23.806Z,101379.91
2018-09-12T05:41:53.422Z,101375.89
2018-09-12T05:44:22.226Z,101372.66
2018-09-12T05:46:51.012Z,101365.92
2018-09-12T05:49:19.682Z,101367.14
2018-09-12T05:51:48.470Z,101365.27
2018-09-12T05:54:17.523Z,101365.52
2018-09-12T05:56:46.283Z,101365.63
2018-09-12T05:59:15.564Z,101363.47
2018-09-12T06:01:44.248Z,101372.50
2018-09-12T06:04:12.918Z,101361.49
2018-09-12T06:06:41.995Z,101364.27
2018-09-12T06:09:11.585Z,101360.60
2018-09-12T06:11:40.342Z,101362.92
2018-09-12T06:14:09.788Z,101369.66
2018-09-12T06:16:38.452Z,101366.98
2018-09-12T06:19:07.480Z,101355.77
2018-09-12T06:21:37.085Z,101356.79
2018-09-12T06:24:07.462Z,101356.61
2018-09-12T06:26:36.137Z,101354.41
2018-09-12T06:29:05.060Z,101359.42
2018-09-12T06:31:34.551Z,101362.05
2018-09-12T06:34:03.401Z,101360.20
2018-09-12T06:36:33.006Z,101362.27
2018-09-12T06:39:01.816Z,101350.19
2018-09-12T06:41:30.388Z,101357.79
2018-09-12T06:43:59.397Z,101362.50
2018-09-12T06:46:28.050Z,101353.70
2018-09-12T06:48:56.656Z,101355.23
2018-09-12T06:51:25.188Z,101361.69
2018-09-12T06:53:54.088Z,101354.91
2018-09-12T06:56:23.222Z,101354.36
2018-09-12T06:58:52.298Z,101363.47
2018-09-12T07:01:21.158Z,101354.06
2018-09-12T07:03:50.224Z,101349.16
2018-09-12T07:06:18.925Z,101340.06
2018-09-12T07:08:48.102Z,101350.71
2018-09-12T07:11:17.490Z,101350.14
2018-09-12T07:13:47.444Z,101349.85
2018-09-12T07:16:16.729Z,101345.87
2018-09-12T07:18:45.655Z,101342.75
2018-09-12T07:21:16.057Z,101340.06
2018-09-12T07:23:46.765Z,101347.41
2018-09-12T07:26:17.583Z,101347.32
2018-09-12T07:28:46.468Z,101353.28
2018-09-12T07:31:16.610Z,101358.38
2018-09-12T07:33:49.368Z,101359.27
2018-09-12T07:36:17.964Z,101360.66
2018-09-12T07:38:48.518Z,101361.87
2018-09-12T07:41:18.059Z,101361.03
2018-09-12T07:43:48.279Z,101362.27
2018-09-12T07:46:18.036Z,101365.31
2018-09-12T07:48:47.073Z,101371.66
2018-09-12T07:51:17.088Z,101366.86
2018-09-12T07:53:45.952Z,101369.50
2018-09-12T07:56:15.410Z,101377.38
2018-09-12T07:58:44.382Z,101374.64
2018-09-12T08:01:13.771Z,101371.11
2018-09-12T08:03:43.089Z,101379.17
2018-09-12T08:06:13.382Z,101370.84
2018-09-12T08:08:43.964Z,101365.51
2018-09-12T08:11:13.383Z,101360.34
2018-09-12T08:13:42.380Z,101374.36
2018-09-12T08:16:11.594Z,101380.06
2018-09-12T08:18:40.904Z,101373.80
2018-09-12T08:21:10.688Z,101382.16
2018-09-12T08:23:39.663Z,101379.81
2018-09-12T08:26:08.361Z,101381.00
2018-09-12T08:28:36.976Z,101379.52
2018-09-12T08:31:06.172Z,101378.00
2018-09-12T08:33:35.500Z,101377.17
2018-09-12T08:36:04.602Z,101384.28
2018-09-12T08:38:34.541Z,101383.39
2018-09-12T08:41:03.182Z,101387.98
2018-09-12T08:43:32.319Z,101388.53
2018-09-12T08:46:00.989Z,101392.03
2018-09-12T08:48:30.054Z,101391.45
2018-09-12T08:50:59.517Z,101393.28
2018-09-12T08:53:28.093Z,101400.02
2018-09-12T08:55:56.941Z,101394.71
2018-09-12T08:58:26.001Z,101393.78
2018-09-12T09:00:54.824Z,101398.66
2018-09-12T09:03:24.112Z,101404.81
2018-09-12T09:05:53.557Z,101400.09
2018-09-12T09:08:22.525Z,101399.10
2018-09-12T09:10:51.725Z,101399.74
2018-09-12T09:13:21.247Z,101390.10
2018-09-12T09:15:50.106Z,101386.70
2018-09-12T09:18:18.943Z,101379.81
2018-09-12T09:20:47.985Z,101384.10
2018-09-12T09:23:16.733Z,101394.27
2018-09-12T09:25:46.650Z,101389.66
2018-09-12T09:28:16.528Z,101382.58
2018-09-12T09:30:45.725Z,101385.95
2018-09-12T09:33:15.334Z,101385.45
2018-09-12T09:35:44.480Z,101381.48
2018-09-12T09:38:15.318Z,101385.16
2018-09-12T09:40:44.130Z,101380.75
2018-09-12T09:43:14.543Z,101384.84
2018-09-12T09:45:43.100Z,101380.28
2018-09-12T09:48:11.856Z,101383.45
2018-09-12T09:50:40.824Z,101377.27
2018-09-12T09:53:09.346Z,101372.27
2018-09-12T09:55:38.632Z,101373.53
2018-09-12T09:58:07.817Z,101376.92
2018-09-12T10:01:44.384Z,101365.27
2018-09-12T10:04:17.078Z,101367.02
2018-09-12T10:06:52.498Z,101362.62
2018-09-12T10:09:27.592Z,101368.84
2018-09-12T10:11:56.676Z,101359.48
2018-09-12T10:14:25.353Z,101355.98
2018-09-12T10:16:55.035Z,101352.53
2018-09-12T10:19:24.103Z,101355.63
2018-09-12T10:21:53.849Z,101353.17
2018-09-12T10:24:22.624Z,101360.98
2018-09-12T10:26:51.518Z,101355.44
2018-09-12T10:29:21.642Z,101358.89
2018-09-12T10:31:51.760Z,101346.75
2018-09-12T10:34:21.509Z,101343.98
2018-09-12T10:36:51.210Z,101350.70
2018-09-12T10:39:20.721Z,101335.48
2018-09-12T10:41:51.624Z,101344.84
2018-09-12T10:44:20.136Z,101340.90
2018-09-12T10:46:48.626Z,101331.06
2018-09-12T10:49:17.170Z,101331.05
2018-09-12T10:51:46.649Z,101334.44
2018-09-12T10:54:15.183Z,101339.86
2018-09-12T10:56:43.848Z,101343.78
2018-09-12T10:59:12.496Z,101339.73
2018-09-12T11:01:41.561Z,101323.95
2018-09-12T11:04:10.102Z,101337.05
2018-09-12T11:06:38.498Z,101339.82
2018-09-12T11:09:10.229Z,101334.13
2018-09-12T11:11:39.445Z,101339.11
2018-09-12T11:14:08.339Z,101343.58
2018-09-12T11:16:38.223Z,101349.47
2018-09-12T11:19:07.141Z,101340.51
2018-09-12T11:21:35.719Z,101335.30
2018-09-12T11:24:04.565Z,101333.20
2018-09-12T11:26:33.139Z,101342.80
2018-09-12T11:29:01.994Z,101334.75
2018-09-12T11:31:31.069Z,101337.55
2018-09-12T11:33:59.837Z,101328.70
2018-09-12T11:36:28.254Z,101320.46
2018-09-12T11:38:56.826Z,101321.42
2018-09-12T11:41:25.443Z,101321.22
2018-09-12T11:43:53.901Z,101322.14
2018-09-12T11:46:22.435Z,101320.44
2018-09-12T11:48:51.354Z,101327.32
2018-09-12T11:51:19.934Z,101312.45
2018-09-12T11:53:48.886Z,101315.53
2018-09-12T11:56:17.708Z,101320.23
2018-09-12T11:58:46.958Z,101319.89
2018-09-12T12:01:16.247Z,101316.56
2018-09-12T12:03:44.866Z,101306.38
2018-09-12T12:06:13.583Z,101299.66
2018-09-12T12:08:42.225Z,101307.48
2018-09-12T12:11:10.942Z,101306.92
2018-09-12T12:13:39.540Z,101304.54
2018-09-12T12:16:08.592Z,101295.70
2018-09-12T12:18:37.537Z,101302.27
2018-09-12T12:21:06.521Z,101311.66
2018-09-12T12:23:35.006Z,101300.73
2018-09-12T12:26:03.523Z,101299.66
2018-09-12T12:28:32.005Z,101310.88
2018-09-12T12:31:00.582Z,101303.48
2018-09-12T12:33:29.166Z,101297.25
2018-09-12T12:35:58.155Z,101302.19
2018-09-12T12:38:28.114Z,101308.52
2018-09-12T12:40:57.311Z,101311.94
2018-09-12T12:43:25.826Z,101308.77
2018-09-12T12:45:55.159Z,101294.69
2018-09-12T12:48:23.761Z,101295.23
2018-09-12T12:50:52.250Z,101291.51
2018-09-12T12:53:20.848Z,101288.13
2018-09-12T12:55:49.339Z,101286.41
2018-09-12T12:58:17.905Z,101278.53
2018-09-12T13:00:46.528Z,101290.14
2018-09-12T13:03:16.141Z,101285.69
2018-09-12T13:05:44.734Z,101276.22
2018-09-12T13:08:13.366Z,101274.92
2018-09-12T13:10:43.477Z,101276.32
2018-09-12T13:13:13.391Z,101285.28
2018-09-12T13:15:43.253Z,101272.83
2018-09-12T13:18:12.009Z,101276.98
2018-09-12T13:20:41.486Z,101274.14
2018-09-12T13:23:11.606Z,101272.97
2018-09-12T13:25:40.209Z,101278.88
2018-09-12T13:28:10.265Z,101273.65
2018-09-12T13:30:38.808Z,101276.89
2018-09-12T13:33:08.120Z,101282.27
2018-09-12T13:35:37.281Z,101282.30
2018-09-12T13:38:06.040Z,101283.16
2018-09-12T13:40:34.780Z,101287.46
2018-09-12T13:43:03.361Z,101283.38
2018-09-12T13:45:31.980Z,101287.13
2018-09-12T13:48:00.925Z,101294.22
2018-09-12T13:50:30.649Z,101283.84
2018-09-12T13:52:59.176Z,101290.44
2018-09-12T13:55:29.438Z,101289.19
2018-09-12T13:57:58.945Z,101290.95
2018-09-12T14:00:31.016Z,101289.14
2018-09-12T14:03:00.452Z,101282.22
2018-09-12T14:05:30.247Z,101304.14
2018-09-12T14:07:59.935Z,101294.26
2018-09-12T14:10:28.880Z,101298.39
2018-09-12T14:12:57.908Z,101299.06
2018-09-12T14:15:26.514Z,101297.78
2018-09-12T14:17:55.132Z,101295.94
2018-09-12T14:20:24.255Z,101290.86
2018-09-12T14:22:53.142Z,101289.91
2018-09-12T14:25:22.682Z,101292.31
2018-09-12T14:27:51.387Z,101293.30
2018-09-12T14:30:20.063Z,101290.59
2018-09-12T14:32:48.633Z,101289.17
2018-09-12T14:35:17.431Z,101293.64
2018-09-12T14:37:46.110Z,101286.81
2018-09-12T14:40:14.852Z,101293.64
2018-09-12T14:42:44.238Z,101302.72
2018-09-12T14:45:13.096Z,101302.77
2018-09-12T14:47:41.854Z,101299.97
2018-09-12T14:50:10.380Z,101312.25
2018-09-12T14:52:39.053Z,101306.23
2018-09-12T14:55:08.227Z,101308.80
2018-09-12T14:57:36.892Z,101310.92
2018-09-12T15:00:06.109Z,101310.92
2018-09-12T15:02:34.873Z,101320.72
2018-09-12T15:05:04.070Z,101323.08
2018-09-12T15:07:33.467Z,101322.33
2018-09-12T15:10:02.258Z,101321.91
2018-09-12T15:12:31.047Z,101322.15
2018-09-12T15:15:02.055Z,101320.50
2018-09-12T15:17:31.908Z,101326.18
2018-09-12T15:20:00.916Z,101325.92
2018-09-12T15:22:31.996Z,101334.26
2018-09-12T15:25:00.652Z,101331.11
2018-09-12T15:27:30.092Z,101334.34
2018-09-12T15:29:59.998Z,101338.94
2018-09-12T15:32:29.396Z,101347.45
2018-09-12T15:34:58.889Z,101354.00
2018-09-12T15:37:28.432Z,101354.66
2018-09-12T15:39:59.147Z,101361.05
2018-09-12T15:42:28.286Z,101364.06
2018-09-12T15:44:58.500Z,101363.45
2018-09-12T15:47:28.352Z,101367.16
2018-09-12T15:49:57.687Z,101370.81
2018-09-12T15:52:28.047Z,101372.70
2018-09-12T15:54:57.416Z,101371.34
2018-09-12T15:57:26.327Z,101367.30
2018-09-12T15:59:57.650Z,101372.52
2018-09-12T16:02:27.185Z,101368.44
2018-09-12T16:04:56.496Z,101373.09
2018-09-12T16:07:25.145Z,101385.17
2018-09-12T16:09:56.043Z,101380.37
2018-09-12T16:12:24.727Z,101382.54
2018-09-12T16:14:53.379Z,101389.28
2018-09-12T16:17:22.706Z,101389.86
2018-09-12T16:19:52.209Z,101392.46
2018-09-12T16:22:21.572Z,101394.77
2018-09-12T16:24:50.643Z,101401.91
2018-09-12T16:27:20.941Z,101406.73
2018-09-12T16:29:51.548Z,101408.75
2018-09-12T16:32:22.565Z,101403.77
2018-09-12T16:34:53.025Z,101410.64
2018-09-12T16:37:23.010Z,101413.36
2018-09-12T16:39:55.476Z,101425.91
2018-09-12T16:42:25.909Z,101436.59
2018-09-12T16:44:54.603Z,101434.11
2018-09-12T16:47:23.898Z,101432.79
2018-09-12T16:49:53.756Z,101437.02
2018-09-12T16:52:23.052Z,101439.08
2018-09-12T16:54:53.700Z,101441.05
2018-09-12T16:57:24.829Z,101449.47
2018-09-12T16:59:54.906Z,101446.95
2018-09-12T17:02:24.940Z,101460.34
2018-09-12T17:04:53.877Z,101453.59
2018-09-12T17:07:23.288Z,101467.52
2018-09-12T17:09:52.043Z,101457.70
2018-09-12T17:12:20.920Z,101462.59
2018-09-12T17:14:52.954Z,101461.82
2018-09-12T17:17:22.703Z,101461.73
2018-09-12T17:19:51.515Z,101467.90
2018-09-12T17:22:20.774Z,101465.61
2018-09-12T17:24:50.843Z,101464.80
2018-09-12T17:27:22.910Z,101468.91
2018-09-12T17:29:52.029Z,101471.03
2018-09-12T17:32:21.918Z,101471.23
2018-09-12T17:34:51.745Z,101478.64
2018-09-12T17:37:20.463Z,101476.25
2018-09-12T17:39:50.900Z,101480.83
2018-09-12T17:42:19.806Z,101485.78
2018-09-12T17:44:48.376Z,101490.23
2018-09-12T17:47:19.210Z,101496.02
2018-09-12T17:49:47.878Z,101495.02
2018-09-12T17:52:17.827Z,101493.62
2018-09-12T17:54:46.380Z,101496.71
2018-09-12T17:57:16.091Z,101502.86
2018-09-12T17:59:46.211Z,101506.28
2018-09-12T18:02:15.990Z,101512.34
2018-09-12T18:04:45.426Z,101518.07
2018-09-12T18:07:14.019Z,101514.87
2018-09-12T18:09:42.744Z,101520.63
2018-09-12T18:12:12.203Z,101523.18
2018-09-12T18:14:42.184Z,101537.06
2018-09-12T18:17:11.201Z,101534.66
2018-09-12T18:19:39.690Z,101545.86
2018-09-12T18:25:00.649Z,101550.86
2018-09-12T18:27:29.795Z,101542.26
2018-09-12T18:29:59.081Z,101545.41
2018-09-12T18:32:28.763Z,101546.35
2018-09-12T18:34:57.515Z,101555.44
2018-09-12T18:37:26.049Z,101567.67
2018-09-12T18:39:54.627Z,101568.59
2018-09-12T18:42:23.876Z,101569.84
2018-09-12T18:44:52.624Z,101580.33
2018-09-12T18:47:21.381Z,101581.70
2018-09-12T18:49:49.870Z,101590.23
2018-09-12T18:52:18.756Z,101586.53
2018-09-12T18:54:47.212Z,101590.16
2018-09-12T18:57:15.748Z,101598.80
2018-09-12T18:59:44.263Z,101595.59
2018-09-12T19:02:12.761Z,101604.23
2018-09-12T19:04:41.359Z,101605.78
2018-09-12T19:07:11.221Z,101606.86
2018-09-12T19:09:39.868Z,101600.83
2018-09-12T19:12:08.416Z,101600.53
2018-09-12T19:14:36.951Z,101599.39
2018-09-12T19:17:05.424Z,101608.31
2018-09-12T19:19:33.994Z,101604.52
2018-09-12T19:22:02.357Z,101610.55
2018-09-12T19:24:30.726Z,101618.70
2018-09-12T19:26:59.140Z,101625.16
2018-09-12T19:29:27.510Z,101624.53
2018-09-12T19:31:55.872Z,101634.33
2018-09-12T19:34:24.184Z,101636.66
2018-09-12T19:36:52.549Z,101648.75
2018-09-12T19:39:21.445Z,101643.31
2018-09-12T19:41:49.925Z,101644.01
2018-09-12T19:44:18.220Z,101633.05
2018-09-12T19:46:46.529Z,101644.95
2018-09-12T19:49:14.848Z,101648.85
2018-09-12T19:51:43.185Z,101641.86
2018-09-12T19:54:11.510Z,101641.50
2018-09-12T19:56:39.858Z,101651.65
2018-09-12T19:59:08.198Z,101649.14
2018-09-12T20:01:36.532Z,101651.92
2018-09-12T20:04:04.977Z,101646.67
2018-09-12T20:06:33.334Z,101648.97
2018-09-12T20:09:01.670Z,101644.34
2018-09-12T20:11:30.012Z,101642.56
2018-09-12T20:13:58.322Z,101648.94
2018-09-12T20:16:26.663Z,101650.67
2018-09-12T20:18:55.017Z,101649.91
2018-09-12T20:21:23.339Z,101651.44
2018-09-12T20:23:51.782Z,101652.58
2018-09-12T20:26:20.048Z,101658.67
2018-09-12T20:28:49.707Z,101659.20
2018-09-12T20:31:18.003Z,101665.61
2018-09-12T20:33:46.789Z,101662.37
2018-09-12T20:36:15.087Z,101663.77
2018-09-12T20:38:43.568Z,101663.89
2018-09-12T20:41:11.875Z,101663.34
2018-09-12T20:43:40.176Z,101664.04
2018-09-12T20:46:08.506Z,101662.32
2018-09-12T20:48:36.861Z,101662.87
2018-09-12T20:51:05.202Z,101672.74
2018-09-12T20:53:33.586Z,101664.71
2018-09-12T20:56:01.996Z,101667.91
2018-09-12T20:58:30.324Z,101666.33
2018-09-12T21:00:58.663Z,101668.63
2018-09-12T21:03:26.997Z,101673.27
2018-09-12T21:05:55.303Z,101664.06
2018-09-12T21:08:23.635Z,101668.88
2018-09-12T21:10:52.032Z,101674.14
2018-09-12T21:13:20.348Z,101677.83
2018-09-12T21:15:48.691Z,101673.92
2018-09-12T21:18:17.176Z,101682.12
2018-09-12T21:20:45.421Z,101682.41
2018-09-12T21:23:13.736Z,101690.38
2018-09-12T21:25:42.076Z,101694.70
2018-09-12T21:28:10.412Z,101694.65
2018-09-12T21:30:38.742Z,101699.59
2018-09-12T21:33:07.085Z,101700.23
2018-09-12T21:35:35.445Z,101697.42
2018-09-12T21:38:03.809Z,101692.05
2018-09-12T21:40:32.411Z,101695.05
2018-09-12T21:43:00.877Z,101696.89
2018-09-12T21:45:29.221Z,101693.95
2018-09-12T21:47:57.602Z,101694.09
2018-09-12T21:50:25.985Z,101693.91
2018-09-12T21:52:54.512Z,101699.58
2018-09-12T21:55:22.829Z,101694.70
2018-09-12T21:57:51.163Z,101701.48
2018-09-12T22:00:19.523Z,101701.88
2018-09-12T22:02:47.833Z,101706.47
2018-09-12T22:05:16.181Z,101709.40
2018-09-12T22:07:44.478Z,101711.14
2018-09-12T22:10:13.348Z,101710.50
2018-09-12T22:12:41.673Z,101709.62
2018-09-12T22:15:10.002Z,101713.59
2018-09-12T22:17:38.313Z,101716.02
2018-09-12T22:20:06.657Z,101716.18
2018-09-12T22:22:34.986Z,101723.57
2018-09-12T22:25:03.348Z,101723.25
2018-09-12T22:27:31.689Z,101715.98
2018-09-12T22:30:00.034Z,101709.10
2018-09-12T22:32:28.372Z,101719.82
2018-09-12T22:34:56.733Z,101714.95
2018-09-12T22:37:25.084Z,101720.70
2018-09-12T22:39:53.404Z,101710.59
2018-09-12T22:42:21.765Z,101712.66
2018-09-12T22:44:50.073Z,101712.11
2018-09-12T22:47:18.422Z,101705.72
2018-09-12T22:49:46.737Z,101707.17
2018-09-12T22:52:15.106Z,101713.85
2018-09-12T22:54:43.460Z,101711.30
2018-09-12T22:57:11.796Z,101713.69
2018-09-12T22:59:40.180Z,101710.37
2018-09-12T23:02:08.563Z,101713.79
2018-09-12T23:04:37.051Z,101722.73
2018-09-12T23:07:05.581Z,101716.95
2018-09-12T23:09:33.882Z,101721.67
2018-09-12T23:12:02.244Z,101719.47
2018-09-12T23:14:30.661Z,101720.37
2018-09-12T23:16:59.076Z,101719.17
2018-09-12T23:19:27.372Z,101716.85
2018-09-12T23:21:55.696Z,101713.38
2018-09-12T23:24:24.031Z,101714.08
2018-09-12T23:26:52.383Z,101711.69
2018-09-12T23:29:20.832Z,101706.39
2018-09-12T23:31:49.195Z,101715.98
2018-09-12T23:34:17.517Z,101726.66
2018-09-12T23:36:45.855Z,101728.51
2018-09-12T23:39:14.812Z,101732.58
2018-09-12T23:41:43.271Z,101722.27
2018-09-12T23:44:11.885Z,101716.47
2018-09-12T23:46:40.354Z,101712.17
2018-09-12T23:49:09.055Z,101704.75
2018-09-12T23:51:37.628Z,101695.45
2018-09-12T23:54:06.262Z,101695.71
2018-09-12T23:56:34.628Z,101692.68
2018-09-12T23:59:02.947Z,101703.14
